Terminal Aerodrome Forecast
Issued by NWS Cleveland, OH

Home | Current Version | Previous Version | Graphics & Text | Print | Product List | Glossary On
Versions: 1 2 3 4 5 6 7 8 9 10 11 12 13 14 15 16 17
000
FTUS41 KCLE 292300
TAFMFD
TAF
KMFD 292320Z 3000/3024 29010G20KT 4SM -SN BR OVC007
     FM300100 28012G19KT 3SM BR OVC007
     FM300800 31013G19KT P6SM OVC015
     FM301800 31010G17KT P6SM FEW250
     FM302200 31007KT P6SM BKN250=

USA.gov is the U.S. government's official web portal to all federal, state and local government web resources and services.